CheckWX is a tool to help pilots better visualize weather data.  It is not intended as a substitute for an official pre-flight weather briefing.

18:02:25 UTC

ENST METAR
Sandnessjøen , Stokka Airport
Alstahaug, Norway
Current

12 mins ago

ENST 171750Z VRB03KT 9999 FEW032 BKN080 02/M05 Q1011 RMK WIND 300FT 12010KT
Observed
Feb-17 @ 17:50 UTC
Wind
  • Variable at 3 KTS
Visibility
10,000+ meters
Flight Rules
VFR
Cloud Levels
  • Few at 3,200' AGL
  • Broken at 8,000' AGL
Temperature
C / 36°F
Dewpoint
-5°C / 23°F
Humidity
60%
Altimeter
29.85" Hg
Pressure
1010.92 hPa
Previous

42 mins ago

ENST 171720Z 09004KT 030V140 9999 FEW032 BKN100 02/M04 Q1011 RMK WIND 300FT 12007KT
Observed
Feb-17 @ 17:20 UTC
Wind
  • 090° at 4 KTS
Visibility
10,000+ meters
Flight Rules
VFR
Cloud Levels
  • Few at 3,200' AGL
  • Broken at 10,000' AGL
Temperature
C / 36°F
Dewpoint
-4°C / 25°F
Humidity
65%
Altimeter
29.85" Hg
Pressure
1010.92 hPa
Previous

1 hour ago

ENST 171650Z 06006KT 030V110 9999 FEW032 BKN100 02/M04 Q1011 RMK WIND 300FT 09008KT
Observed
Feb-17 @ 16:50 UTC
Wind
  • 060° at 6 KTS
Visibility
10,000+ meters
Flight Rules
VFR
Cloud Levels
  • Few at 3,200' AGL
  • Broken at 10,000' AGL
Temperature
C / 36°F
Dewpoint
-4°C / 25°F
Humidity
65%
Altimeter
29.85" Hg
Pressure
1010.92 hPa